Аэропорт: Белгород . Белгород

ICAO: UUOB

METAR:
2021-01-20 04:00:00
UUOB 200400Z 27003MPS 9000 NSC M20/M22 Q1019 R29/850340 NOSIG
METAR:
Информация по данной станции не доступна